sensor_id;sensor_type;location;lat;lon;timestamp;P1;durP1;ratioP1;P2;durP2;ratioP2
63217;SDS011;49314;48.278;16.378;2023-04-03T00:00:35;8.60;;;8.10;;
63217;SDS011;49314;48.278;16.378;2023-04-03T00:03:01;8.02;;;7.47;;
63217;SDS011;49314;48.278;16.378;2023-04-03T00:05:26;7.50;;;7.07;;
63217;SDS011;49314;48.278;16.378;2023-04-03T00:07:51;9.20;;;8.70;;
63217;SDS011;49314;48.278;16.378;2023-04-03T00:10:16;9.48;;;8.98;;
63217;SDS011;49314;48.278;16.378;2023-04-03T00:12:42;10.48;;;9.98;;
63217;SDS011;49314;48.278;16.378;2023-04-03T00:15:07;7.80;;;7.40;;
63217;SDS011;49314;48.278;16.378;2023-04-03T00:17:33;10.75;;;10.20;;
63217;SDS011;49314;48.278;16.378;2023-04-03T00:19:58;6.65;;;6.18;;
63217;SDS011;49314;48.278;16.378;2023-04-03T00:22:23;8.43;;;7.93;;
63217;SDS011;49314;48.278;16.378;2023-04-03T00:24:51;10.77;;;10.18;;
63217;SDS011;49314;48.278;16.378;2023-04-03T00:27:16;13.35;;;12.77;;
63217;SDS011;49314;48.278;16.378;2023-04-03T00:29:41;8.02;;;7.55;;
63217;SDS011;49314;48.278;16.378;2023-04-03T00:32:06;12.23;;;11.73;;
63217;SDS011;49314;48.278;16.378;2023-04-03T00:34:32;10.57;;;10.07;;
63217;SDS011;49314;48.278;16.378;2023-04-03T00:36:57;10.10;;;9.63;;
63217;SDS011;49314;48.278;16.378;2023-04-03T00:39:22;8.15;;;7.55;;
63217;SDS011;49314;48.278;16.378;2023-04-03T00:41:47;8.93;;;8.25;;
63217;SDS011;49314;48.278;16.378;2023-04-03T00:44:23;11.35;;;10.85;;
63217;SDS011;49314;48.278;16.378;2023-04-03T00:47:07;7.97;;;7.43;;
63217;SDS011;49314;48.278;16.378;2023-04-03T00:49:33;7.05;;;6.65;;
63217;SDS011;49314;48.278;16.378;2023-04-03T00:51:58;13.57;;;12.93;;
63217;SDS011;49314;48.278;16.378;2023-04-03T00:54:24;13.30;;;12.63;;
63217;SDS011;49314;48.278;16.378;2023-04-03T00:56:51;9.95;;;9.43;;
63217;SDS011;49314;48.278;16.378;2023-04-03T00:59:18;9.10;;;8.60;;
63217;SDS011;49314;48.278;16.378;2023-04-03T01:01:47;13.60;;;12.90;;
63217;SDS011;49314;48.278;16.378;2023-04-03T01:06:58;5.43;;;5.05;;
63217;SDS011;49314;48.278;16.378;2023-04-03T01:09:24;15.93;;;14.73;;
63217;SDS011;49314;48.278;16.378;2023-04-03T01:11:50;15.80;;;14.57;;
63217;SDS011;49314;48.278;16.378;2023-04-03T01:14:15;14.43;;;13.05;;
63217;SDS011;49314;48.278;16.378;2023-04-03T01:16:41;11.43;;;10.60;;
63217;SDS011;49314;48.278;16.378;2023-04-03T01:19:11;14.65;;;13.52;;
63217;SDS011;49314;48.278;16.378;2023-04-03T01:24:11;9.82;;;9.13;;
63217;SDS011;49314;48.278;16.378;2023-04-03T01:26:38;10.68;;;9.93;;
63217;SDS011;49314;48.278;16.378;2023-04-03T01:29:04;8.82;;;8.32;;
63217;SDS011;49314;48.278;16.378;2023-04-03T01:34:00;8.27;;;7.88;;
63217;SDS011;49314;48.278;16.378;2023-04-03T01:36:27;8.23;;;7.75;;
63217;SDS011;49314;48.278;16.378;2023-04-03T01:38:53;9.55;;;9.00;;
63217;SDS011;49314;48.278;16.378;2023-04-03T01:41:18;8.55;;;8.05;;
63217;SDS011;49314;48.278;16.378;2023-04-03T01:43:45;10.10;;;9.60;;
63217;SDS011;49314;48.278;16.378;2023-04-03T01:46:11;11.13;;;10.63;;
63217;SDS011;49314;48.278;16.378;2023-04-03T01:48:36;7.68;;;7.10;;
63217;SDS011;49314;48.278;16.378;2023-04-03T01:51:01;9.50;;;9.10;;
63217;SDS011;49314;48.278;16.378;2023-04-03T01:53:26;9.43;;;9.02;;
63217;SDS011;49314;48.278;16.378;2023-04-03T01:55:52;7.75;;;7.35;;
63217;SDS011;49314;48.278;16.378;2023-04-03T01:58:17;8.27;;;7.78;;
63217;SDS011;49314;48.278;16.378;2023-04-03T02:00:42;9.27;;;8.68;;
63217;SDS011;49314;48.278;16.378;2023-04-03T02:03:07;8.18;;;7.75;;
63217;SDS011;49314;48.278;16.378;2023-04-03T02:05:33;11.90;;;10.85;;
63217;SDS011;49314;48.278;16.378;2023-04-03T02:07:58;10.43;;;9.82;;
63217;SDS011;49314;48.278;16.378;2023-04-03T02:10:23;12.20;;;11.27;;
63217;SDS011;49314;48.278;16.378;2023-04-03T02:12:48;10.75;;;9.32;;
63217;SDS011;49314;48.278;16.378;2023-04-03T02:15:14;11.68;;;10.75;;
63217;SDS011;49314;48.278;16.378;2023-04-03T02:17:39;10.88;;;10.15;;
63217;SDS011;49314;48.278;16.378;2023-04-03T02:20:04;9.45;;;8.73;;
63217;SDS011;49314;48.278;16.378;2023-04-03T02:22:30;10.98;;;10.48;;
63217;SDS011;49314;48.278;16.378;2023-04-03T02:24:55;8.70;;;8.20;;
63217;SDS011;49314;48.278;16.378;2023-04-03T02:27:20;11.63;;;11.13;;
63217;SDS011;49314;48.278;16.378;2023-04-03T02:29:46;9.75;;;9.25;;
63217;SDS011;49314;48.278;16.378;2023-04-03T02:32:11;9.90;;;9.32;;
63217;SDS011;49314;48.278;16.378;2023-04-03T02:34:36;11.15;;;10.55;;
63217;SDS011;49314;48.278;16.378;2023-04-03T02:37:01;13.95;;;12.50;;
63217;SDS011;49314;48.278;16.378;2023-04-03T02:39:27;12.15;;;11.07;;
63217;SDS011;49314;48.278;16.378;2023-04-03T02:41:53;9.77;;;9.18;;
63217;SDS011;49314;48.278;16.378;2023-04-03T02:44:18;10.32;;;9.82;;
63217;SDS011;49314;48.278;16.378;2023-04-03T02:46:43;10.00;;;9.52;;
63217;SDS011;49314;48.278;16.378;2023-04-03T02:49:09;7.93;;;7.35;;
63217;SDS011;49314;48.278;16.378;2023-04-03T02:51:34;9.73;;;9.15;;
63217;SDS011;49314;48.278;16.378;2023-04-03T02:53:59;10.65;;;10.10;;
63217;SDS011;49314;48.278;16.378;2023-04-03T02:56:25;10.50;;;9.90;;
63217;SDS011;49314;48.278;16.378;2023-04-03T02:58:51;10.55;;;9.93;;
63217;SDS011;49314;48.278;16.378;2023-04-03T03:01:17;9.32;;;8.57;;
63217;SDS011;49314;48.278;16.378;2023-04-03T03:03:42;10.10;;;9.52;;
63217;SDS011;49314;48.278;16.378;2023-04-03T03:06:08;10.40;;;9.82;;
63217;SDS011;49314;48.278;16.378;2023-04-03T03:08:35;11.23;;;10.63;;
63217;SDS011;49314;48.278;16.378;2023-04-03T03:11:00;8.57;;;8.07;;
63217;SDS011;49314;48.278;16.378;2023-04-03T03:13:26;8.02;;;7.63;;
63217;SDS011;49314;48.278;16.378;2023-04-03T03:15:51;8.52;;;7.90;;
63217;SDS011;49314;48.278;16.378;2023-04-03T03:18:16;10.30;;;9.35;;
63217;SDS011;49314;48.278;16.378;2023-04-03T03:20:42;8.88;;;8.38;;
63217;SDS011;49314;48.278;16.378;2023-04-03T03:23:07;53.70;;;41.45;;
63217;SDS011;49314;48.278;16.378;2023-04-03T03:25:32;11.52;;;10.52;;
63217;SDS011;49314;48.278;16.378;2023-04-03T03:27:57;8.75;;;7.93;;
63217;SDS011;49314;48.278;16.378;2023-04-03T03:30:23;11.52;;;10.60;;
63217;SDS011;49314;48.278;16.378;2023-04-03T03:32:48;9.40;;;8.80;;
63217;SDS011;49314;48.278;16.378;2023-04-03T03:35:13;10.43;;;9.77;;
63217;SDS011;49314;48.278;16.378;2023-04-03T03:37:38;12.93;;;12.05;;
63217;SDS011;49314;48.278;16.378;2023-04-03T03:40:04;11.77;;;10.93;;
63217;SDS011;49314;48.278;16.378;2023-04-03T03:42:29;24.80;;;17.52;;
63217;SDS011;49314;48.278;16.378;2023-04-03T03:44:54;12.90;;;11.80;;
63217;SDS011;49314;48.278;16.378;2023-04-03T03:47:19;8.85;;;8.30;;
63217;SDS011;49314;48.278;16.378;2023-04-03T03:49:45;11.57;;;11.05;;
63217;SDS011;49314;48.278;16.378;2023-04-03T03:52:10;9.55;;;9.15;;
63217;SDS011;49314;48.278;16.378;2023-04-03T03:54:36;8.57;;;8.15;;
63217;SDS011;49314;48.278;16.378;2023-04-03T03:57:01;8.98;;;8.38;;
63217;SDS011;49314;48.278;16.378;2023-04-03T03:59:26;8.27;;;7.78;;
63217;SDS011;49314;48.278;16.378;2023-04-03T04:01:51;8.82;;;8.30;;
63217;SDS011;49314;48.278;16.378;2023-04-03T04:04:17;10.10;;;9.60;;
63217;SDS011;49314;48.278;16.378;2023-04-03T04:06:42;8.00;;;7.60;;
63217;SDS011;49314;48.278;16.378;2023-04-03T04:09:08;9.70;;;9.23;;
63217;SDS011;49314;48.278;16.378;2023-04-03T04:11:33;9.07;;;8.68;;
63217;SDS011;49314;48.278;16.378;2023-04-03T04:13:59;8.65;;;8.15;;
63217;SDS011;49314;48.278;16.378;2023-04-03T04:16:24;8.93;;;8.30;;
63217;SDS011;49314;48.278;16.378;2023-04-03T04:18:50;9.43;;;8.85;;
63217;SDS011;49314;48.278;16.378;2023-04-03T04:21:15;9.30;;;8.75;;
63217;SDS011;49314;48.278;16.378;2023-04-03T04:23:40;8.65;;;8.15;;
63217;SDS011;49314;48.278;16.378;2023-04-03T04:26:05;11.30;;;10.80;;
63217;SDS011;49314;48.278;16.378;2023-04-03T04:28:31;9.73;;;9.23;;
63217;SDS011;49314;48.278;16.378;2023-04-03T04:38:11;8.05;;;7.57;;
63217;SDS011;49314;48.278;16.378;2023-04-03T04:40:36;13.63;;;12.98;;
63217;SDS011;49314;48.278;16.378;2023-04-03T04:43:02;10.38;;;9.77;;
63217;SDS011;49314;48.278;16.378;2023-04-03T04:45:27;9.23;;;8.43;;
63217;SDS011;49314;48.278;16.378;2023-04-03T04:47:54;12.40;;;11.23;;
63217;SDS011;49314;48.278;16.378;2023-04-03T04:50:20;10.07;;;9.02;;
63217;SDS011;49314;48.278;16.378;2023-04-03T04:52:45;8.57;;;8.07;;
63217;SDS011;49314;48.278;16.378;2023-04-03T04:55:10;8.93;;;8.45;;
63217;SDS011;49314;48.278;16.378;2023-04-03T04:57:35;11.13;;;10.63;;
63217;SDS011;49314;48.278;16.378;2023-04-03T05:00:02;14.88;;;14.27;;
63217;SDS011;49314;48.278;16.378;2023-04-03T05:02:27;11.50;;;10.80;;
63217;SDS011;49314;48.278;16.378;2023-04-03T05:04:53;7.50;;;7.00;;
63217;SDS011;49314;48.278;16.378;2023-04-03T05:07:18;11.27;;;10.50;;
63217;SDS011;49314;48.278;16.378;2023-04-03T05:09:43;15.45;;;14.73;;
63217;SDS011;49314;48.278;16.378;2023-04-03T05:12:08;8.85;;;8.27;;
63217;SDS011;49314;48.278;16.378;2023-04-03T05:14:34;9.18;;;8.68;;
63217;SDS011;49314;48.278;16.378;2023-04-03T05:16:59;10.23;;;9.63;;
63217;SDS011;49314;48.278;16.378;2023-04-03T05:19:24;11.27;;;10.68;;
63217;SDS011;49314;48.278;16.378;2023-04-03T05:21:49;7.70;;;7.20;;
63217;SDS011;49314;48.278;16.378;2023-04-03T05:24:15;8.63;;;7.97;;
63217;SDS011;49314;48.278;16.378;2023-04-03T05:26:41;8.10;;;7.65;;
63217;SDS011;49314;48.278;16.378;2023-04-03T05:29:06;10.75;;;10.18;;
63217;SDS011;49314;48.278;16.378;2023-04-03T05:31:31;8.27;;;7.80;;
63217;SDS011;49314;48.278;16.378;2023-04-03T05:33:57;8.55;;;8.05;;
63217;SDS011;49314;48.278;16.378;2023-04-03T05:36:22;11.18;;;10.65;;
63217;SDS011;49314;48.278;16.378;2023-04-03T05:38:48;7.03;;;6.63;;
63217;SDS011;49314;48.278;16.378;2023-04-03T05:41:13;10.55;;;10.02;;
63217;SDS011;49314;48.278;16.378;2023-04-03T05:43:38;7.40;;;6.90;;
63217;SDS011;49314;48.278;16.378;2023-04-03T05:46:07;8.68;;;8.18;;
63217;SDS011;49314;48.278;16.378;2023-04-03T05:48:33;9.73;;;9.23;;
63217;SDS011;49314;48.278;16.378;2023-04-03T05:50:58;7.15;;;6.68;;
63217;SDS011;49314;48.278;16.378;2023-04-03T05:53:25;8.10;;;7.40;;
63217;SDS011;49314;48.278;16.378;2023-04-03T05:55:51;12.10;;;10.90;;
63217;SDS011;49314;48.278;16.378;2023-04-03T05:58:17;10.38;;;9.77;;
63217;SDS011;49314;48.278;16.378;2023-04-03T06:00:42;9.65;;;9.05;;
63217;SDS011;49314;48.278;16.378;2023-04-03T06:03:07;9.10;;;8.20;;
63217;SDS011;49314;48.278;16.378;2023-04-03T06:05:32;6.88;;;6.38;;
63217;SDS011;49314;48.278;16.378;2023-04-03T06:07:58;9.70;;;9.30;;
63217;SDS011;49314;48.278;16.378;2023-04-03T06:10:23;10.13;;;9.40;;
63217;SDS011;49314;48.278;16.378;2023-04-03T06:12:48;11.13;;;10.52;;
63217;SDS011;49314;48.278;16.378;2023-04-03T06:15:14;9.23;;;8.50;;
63217;SDS011;49314;48.278;16.378;2023-04-03T06:17:39;10.63;;;9.75;;
63217;SDS011;49314;48.278;16.378;2023-04-03T06:20:05;11.48;;;10.80;;
63217;SDS011;49314;48.278;16.378;2023-04-03T06:22:30;9.40;;;8.70;;
63217;SDS011;49314;48.278;16.378;2023-04-03T06:24:56;8.07;;;7.47;;
63217;SDS011;49314;48.278;16.378;2023-04-03T06:27:21;7.68;;;7.28;;
63217;SDS011;49314;48.278;16.378;2023-04-03T06:29:47;7.68;;;7.22;;
63217;SDS011;49314;48.278;16.378;2023-04-03T06:32:13;7.72;;;7.22;;
63217;SDS011;49314;48.278;16.378;2023-04-03T06:34:38;12.10;;;11.48;;
63217;SDS011;49314;48.278;16.378;2023-04-03T06:37:04;7.28;;;6.68;;
63217;SDS011;49314;48.278;16.378;2023-04-03T06:39:29;9.32;;;8.63;;
63217;SDS011;49314;48.278;16.378;2023-04-03T06:41:55;7.88;;;7.47;;
63217;SDS011;49314;48.278;16.378;2023-04-03T06:44:20;6.82;;;6.43;;
63217;SDS011;49314;48.278;16.378;2023-04-03T06:46:45;10.40;;;9.85;;
63217;SDS011;49314;48.278;16.378;2023-04-03T06:49:11;10.77;;;10.23;;
63217;SDS011;49314;48.278;16.378;2023-04-03T06:51:36;9.50;;;8.82;;
63217;SDS011;49314;48.278;16.378;2023-04-03T06:54:02;10.38;;;9.82;;
63217;SDS011;49314;48.278;16.378;2023-04-03T06:56:28;8.73;;;8.18;;
63217;SDS011;49314;48.278;16.378;2023-04-03T06:58:53;10.60;;;10.00;;
63217;SDS011;49314;48.278;16.378;2023-04-03T07:01:19;8.98;;;8.40;;
63217;SDS011;49314;48.278;16.378;2023-04-03T07:03:45;6.82;;;6.32;;
63217;SDS011;49314;48.278;16.378;2023-04-03T07:06:14;9.77;;;9.18;;
63217;SDS011;49314;48.278;16.378;2023-04-03T07:08:40;7.32;;;6.88;;
63217;SDS011;49314;48.278;16.378;2023-04-03T07:11:06;12.23;;;11.40;;
63217;SDS011;49314;48.278;16.378;2023-04-03T07:13:32;11.43;;;10.43;;
63217;SDS011;49314;48.278;16.378;2023-04-03T07:15:57;15.65;;;14.35;;
63217;SDS011;49314;48.278;16.378;2023-04-03T07:18:23;12.68;;;11.20;;
63217;SDS011;49314;48.278;16.378;2023-04-03T07:20:48;9.40;;;8.18;;
63217;SDS011;49314;48.278;16.378;2023-04-03T07:23:13;7.22;;;6.70;;
63217;SDS011;49314;48.278;16.378;2023-04-03T07:25:42;11.20;;;10.30;;
63217;SDS011;49314;48.278;16.378;2023-04-03T07:28:08;8.93;;;8.32;;
63217;SDS011;49314;48.278;16.378;2023-04-03T07:30:33;7.95;;;7.35;;
63217;SDS011;49314;48.278;16.378;2023-04-03T07:32:59;7.60;;;7.00;;
63217;SDS011;49314;48.278;16.378;2023-04-03T07:35:24;6.38;;;5.78;;
63217;SDS011;49314;48.278;16.378;2023-04-03T07:37:49;8.90;;;8.20;;
63217;SDS011;49314;48.278;16.378;2023-04-03T07:40:15;9.00;;;8.32;;
63217;SDS011;49314;48.278;16.378;2023-04-03T07:42:40;8.32;;;7.70;;
63217;SDS011;49314;48.278;16.378;2023-04-03T07:45:05;7.22;;;6.63;;
63217;SDS011;49314;48.278;16.378;2023-04-03T07:47:31;7.13;;;6.63;;
63217;SDS011;49314;48.278;16.378;2023-04-03T07:49:57;7.18;;;6.57;;
63217;SDS011;49314;48.278;16.378;2023-04-03T07:52:23;7.75;;;7.35;;
63217;SDS011;49314;48.278;16.378;2023-04-03T07:54:48;8.15;;;7.45;;
63217;SDS011;49314;48.278;16.378;2023-04-03T07:57:13;6.10;;;5.60;;
63217;SDS011;49314;48.278;16.378;2023-04-03T07:59:39;6.55;;;6.05;;
63217;SDS011;49314;48.278;16.378;2023-04-03T08:02:07;7.00;;;6.50;;
63217;SDS011;49314;48.278;16.378;2023-04-03T08:04:33;5.72;;;5.32;;
63217;SDS011;49314;48.278;16.378;2023-04-03T08:06:58;5.63;;;5.23;;
63217;SDS011;49314;48.278;16.378;2023-04-03T08:09:23;5.78;;;5.28;;
63217;SDS011;49314;48.278;16.378;2023-04-03T08:11:48;5.03;;;4.53;;
63217;SDS011;49314;48.278;16.378;2023-04-03T08:14:14;5.10;;;4.70;;
63217;SDS011;49314;48.278;16.378;2023-04-03T08:16:43;5.90;;;4.30;;
63217;SDS011;49314;48.278;16.378;2023-04-03T08:19:09;5.72;;;5.22;;
63217;SDS011;49314;48.278;16.378;2023-04-03T08:21:35;5.38;;;4.97;;
63217;SDS011;49314;48.278;16.378;2023-04-03T08:24:01;5.78;;;5.25;;
63217;SDS011;49314;48.278;16.378;2023-04-03T08:26:26;6.28;;;5.35;;
63217;SDS011;49314;48.278;16.378;2023-04-03T08:28:52;6.10;;;5.50;;
63217;SDS011;49314;48.278;16.378;2023-04-03T08:31:18;6.13;;;5.53;;
63217;SDS011;49314;48.278;16.378;2023-04-03T08:33:45;5.63;;;5.13;;
63217;SDS011;49314;48.278;16.378;2023-04-03T08:36:17;4.00;;;3.60;;
63217;SDS011;49314;48.278;16.378;2023-04-03T08:38:43;5.15;;;4.65;;
63217;SDS011;49314;48.278;16.378;2023-04-03T08:43:51;12.77;;;7.07;;
63217;SDS011;49314;48.278;16.378;2023-04-03T08:46:18;4.55;;;4.15;;
63217;SDS011;49314;48.278;16.378;2023-04-03T08:48:45;3.83;;;3.40;;
63217;SDS011;49314;48.278;16.378;2023-04-03T08:51:14;4.30;;;3.67;;
63217;SDS011;49314;48.278;16.378;2023-04-03T08:53:42;5.07;;;4.60;;
63217;SDS011;49314;48.278;16.378;2023-04-03T08:56:09;5.85;;;5.30;;
63217;SDS011;49314;48.278;16.378;2023-04-03T09:01:12;5.72;;;5.32;;
63217;SDS011;49314;48.278;16.378;2023-04-03T09:06:14;6.85;;;6.25;;
63217;SDS011;49314;48.278;16.378;2023-04-03T09:11:08;8.70;;;7.47;;
63217;SDS011;49314;48.278;16.378;2023-04-03T09:13:44;6.55;;;6.05;;
63217;SDS011;49314;48.278;16.378;2023-04-03T09:16:19;6.78;;;6.22;;
63217;SDS011;49314;48.278;16.378;2023-04-03T09:18:48;8.48;;;6.22;;
63217;SDS011;49314;48.278;16.378;2023-04-03T09:21:27;6.25;;;5.70;;
63217;SDS011;49314;48.278;16.378;2023-04-03T09:23:58;5.85;;;5.45;;
63217;SDS011;49314;48.278;16.378;2023-04-03T09:26:26;5.93;;;5.53;;
63217;SDS011;49314;48.278;16.378;2023-04-03T09:28:54;5.35;;;5.05;;
63217;SDS011;49314;48.278;16.378;2023-04-03T09:33:46;7.68;;;7.18;;
63217;SDS011;49314;48.278;16.378;2023-04-03T09:36:12;6.90;;;6.28;;
63217;SDS011;49314;48.278;16.378;2023-04-03T09:38:38;6.25;;;5.70;;
63217;SDS011;49314;48.278;16.378;2023-04-03T09:41:05;7.30;;;6.80;;
63217;SDS011;49314;48.278;16.378;2023-04-03T09:43:31;7.93;;;7.38;;
63217;SDS011;49314;48.278;16.378;2023-04-03T09:46:15;7.18;;;6.57;;
63217;SDS011;49314;48.278;16.378;2023-04-03T09:48:49;8.10;;;7.28;;
63217;SDS011;49314;48.278;16.378;2023-04-03T09:51:14;9.90;;;9.30;;
63217;SDS011;49314;48.278;16.378;2023-04-03T09:53:41;8.20;;;7.60;;
63217;SDS011;49314;48.278;16.378;2023-04-03T09:58:38;8.30;;;7.80;;
63217;SDS011;49314;48.278;16.378;2023-04-03T10:01:07;8.20;;;7.70;;
63217;SDS011;49314;48.278;16.378;2023-04-03T10:03:45;11.43;;;10.52;;
63217;SDS011;49314;48.278;16.378;2023-04-03T10:06:31;10.38;;;9.48;;
63217;SDS011;49314;48.278;16.378;2023-04-03T10:09:00;11.73;;;10.63;;
63217;SDS011;49314;48.278;16.378;2023-04-03T10:11:27;8.90;;;8.27;;
63217;SDS011;49314;48.278;16.378;2023-04-03T10:14:02;7.50;;;7.05;;
63217;SDS011;49314;48.278;16.378;2023-04-03T10:16:41;10.23;;;9.40;;
63217;SDS011;49314;48.278;16.378;2023-04-03T10:44:13;12.90;;;12.15;;
63217;SDS011;49314;48.278;16.378;2023-04-03T10:46:52;13.88;;;13.20;;
63217;SDS011;49314;48.278;16.378;2023-04-03T10:51:44;9.47;;;8.87;;
63217;SDS011;49314;48.278;16.378;2023-04-03T10:54:16;17.00;;;16.30;;
63217;SDS011;49314;48.278;16.378;2023-04-03T10:59:18;13.50;;;12.55;;
63217;SDS011;49314;48.278;16.378;2023-04-03T11:01:48;25.15;;;23.77;;
63217;SDS011;49314;48.278;16.378;2023-04-03T11:04:13;28.27;;;27.10;;
63217;SDS011;49314;48.278;16.378;2023-04-03T11:06:43;30.13;;;28.02;;
63217;SDS011;49314;48.278;16.378;2023-04-03T11:11:37;29.05;;;27.85;;
63217;SDS011;49314;48.278;16.378;2023-04-03T11:14:03;28.60;;;27.40;;
63217;SDS011;49314;48.278;16.378;2023-04-03T11:16:31;20.40;;;19.52;;
63217;SDS011;49314;48.278;16.378;2023-04-03T11:19:11;28.33;;;27.17;;
63217;SDS011;49314;48.278;16.378;2023-04-03T11:21:40;26.38;;;25.38;;
63217;SDS011;49314;48.278;16.378;2023-04-03T11:24:11;26.63;;;25.63;;
63217;SDS011;49314;48.278;16.378;2023-04-03T11:26:41;25.42;;;24.42;;
63217;SDS011;49314;48.278;16.378;2023-04-03T11:29:12;21.63;;;20.70;;
63217;SDS011;49314;48.278;16.378;2023-04-03T11:36:52;22.05;;;21.02;;
63217;SDS011;49314;48.278;16.378;2023-04-03T11:41:43;28.00;;;26.90;;
63217;SDS011;49314;48.278;16.378;2023-04-03T11:52:01;31.27;;;29.70;;
63217;SDS011;49314;48.278;16.378;2023-04-03T11:54:42;28.10;;;26.70;;
63217;SDS011;49314;48.278;16.378;2023-04-03T11:59:52;28.65;;;27.55;;
63217;SDS011;49314;48.278;16.378;2023-04-03T12:02:37;32.53;;;30.63;;
63217;SDS011;49314;48.278;16.378;2023-04-03T12:05:25;39.97;;;36.95;;
63217;SDS011;49314;48.278;16.378;2023-04-03T12:10:32;23.80;;;22.25;;
63217;SDS011;49314;48.278;16.378;2023-04-03T12:12:57;29.63;;;28.40;;
63217;SDS011;49314;48.278;16.378;2023-04-03T12:15:25;31.27;;;29.75;;
63217;SDS011;49314;48.278;16.378;2023-04-03T12:17:51;19.35;;;18.60;;
63217;SDS011;49314;48.278;16.378;2023-04-03T12:23:07;26.60;;;25.50;;
63217;SDS011;49314;48.278;16.378;2023-04-03T12:26:36;29.63;;;28.42;;
63217;SDS011;49314;48.278;16.378;2023-04-03T12:28:29;25.75;;;24.50;;
63217;SDS011;49314;48.278;16.378;2023-04-03T12:30:54;29.42;;;28.23;;
63217;SDS011;49314;48.278;16.378;2023-04-03T12:33:27;28.92;;;27.92;;
63217;SDS011;49314;48.278;16.378;2023-04-03T12:38:39;28.48;;;27.17;;
63217;SDS011;49314;48.278;16.378;2023-04-03T12:43:47;27.30;;;26.15;;
63217;SDS011;49314;48.278;16.378;2023-04-03T12:46:15;29.45;;;28.23;;
63217;SDS011;49314;48.278;16.378;2023-04-03T12:51:13;28.27;;;27.17;;
63217;SDS011;49314;48.278;16.378;2023-04-03T12:53:39;26.65;;;25.65;;
63217;SDS011;49314;48.278;16.378;2023-04-03T12:58:50;28.67;;;27.48;;
63217;SDS011;49314;48.278;16.378;2023-04-03T13:01:16;31.27;;;29.88;;
63217;SDS011;49314;48.278;16.378;2023-04-03T13:03:44;33.95;;;31.77;;
63217;SDS011;49314;48.278;16.378;2023-04-03T13:06:10;24.40;;;23.35;;
63217;SDS011;49314;48.278;16.378;2023-04-03T13:08:38;30.77;;;29.48;;
63217;SDS011;49314;48.278;16.378;2023-04-03T13:11:12;30.58;;;29.00;;
63217;SDS011;49314;48.278;16.378;2023-04-03T13:13:38;14.23;;;13.25;;
63217;SDS011;49314;48.278;16.378;2023-04-03T13:16:08;28.70;;;27.38;;
63217;SDS011;49314;48.278;16.378;2023-04-03T13:18:35;28.48;;;27.17;;
63217;SDS011;49314;48.278;16.378;2023-04-03T13:21:03;26.75;;;25.75;;
63217;SDS011;49314;48.278;16.378;2023-04-03T13:23:29;25.75;;;24.50;;
63217;SDS011;49314;48.278;16.378;2023-04-03T13:25:56;25.75;;;23.88;;
63217;SDS011;49314;48.278;16.378;2023-04-03T13:28:26;28.08;;;26.85;;
63217;SDS011;49314;48.278;16.378;2023-04-03T13:33:35;26.15;;;24.42;;
63217;SDS011;49314;48.278;16.378;2023-04-03T13:36:08;28.65;;;27.27;;
63217;SDS011;49314;48.278;16.378;2023-04-03T13:38:35;25.05;;;23.92;;
63217;SDS011;49314;48.278;16.378;2023-04-03T13:41:03;28.15;;;27.08;;
63217;SDS011;49314;48.278;16.378;2023-04-03T13:43:36;12.02;;;11.40;;
63217;SDS011;49314;48.278;16.378;2023-04-03T13:46:04;24.40;;;23.53;;
63217;SDS011;49314;48.278;16.378;2023-04-03T13:48:40;28.60;;;27.50;;
63217;SDS011;49314;48.278;16.378;2023-04-03T13:51:12;26.52;;;25.40;;
63217;SDS011;49314;48.278;16.378;2023-04-03T13:53:43;16.55;;;15.98;;
63217;SDS011;49314;48.278;16.378;2023-04-03T13:56:14;29.35;;;28.15;;
63217;SDS011;49314;48.278;16.378;2023-04-03T13:58:51;27.73;;;26.57;;
63217;SDS011;49314;48.278;16.378;2023-04-03T14:01:17;24.33;;;23.33;;
63217;SDS011;49314;48.278;16.378;2023-04-03T14:03:44;20.02;;;19.23;;
63217;SDS011;49314;48.278;16.378;2023-04-03T14:06:11;27.33;;;26.25;;
63217;SDS011;49314;48.278;16.378;2023-04-03T14:08:37;30.15;;;28.90;;
63217;SDS011;49314;48.278;16.378;2023-04-03T14:11:02;13.17;;;12.50;;
63217;SDS011;49314;48.278;16.378;2023-04-03T14:13:28;14.85;;;13.90;;
63217;SDS011;49314;48.278;16.378;2023-04-03T14:15:54;28.38;;;27.23;;
63217;SDS011;49314;48.278;16.378;2023-04-03T14:18:20;27.38;;;25.73;;
63217;SDS011;49314;48.278;16.378;2023-04-03T14:20:46;30.15;;;28.70;;
63217;SDS011;49314;48.278;16.378;2023-04-03T14:23:11;29.92;;;28.52;;
63217;SDS011;49314;48.278;16.378;2023-04-03T14:25:37;26.97;;;25.73;;
63217;SDS011;49314;48.278;16.378;2023-04-03T14:28:07;26.70;;;25.42;;
63217;SDS011;49314;48.278;16.378;2023-04-03T14:30:37;31.02;;;29.52;;
63217;SDS011;49314;48.278;16.378;2023-04-03T14:33:03;30.08;;;28.38;;
63217;SDS011;49314;48.278;16.378;2023-04-03T14:35:28;31.13;;;29.83;;
63217;SDS011;49314;48.278;16.378;2023-04-03T14:37:53;28.02;;;26.80;;
63217;SDS011;49314;48.278;16.378;2023-04-03T14:40:20;21.33;;;20.42;;
63217;SDS011;49314;48.278;16.378;2023-04-03T14:42:46;27.58;;;26.48;;
63217;SDS011;49314;48.278;16.378;2023-04-03T14:45:13;25.95;;;24.98;;
63217;SDS011;49314;48.278;16.378;2023-04-03T14:47:41;26.20;;;25.33;;
63217;SDS011;49314;48.278;16.378;2023-04-03T14:50:10;22.88;;;21.80;;
63217;SDS011;49314;48.278;16.378;2023-04-03T14:52:36;25.98;;;24.88;;
63217;SDS011;49314;48.278;16.378;2023-04-03T14:55:02;28.42;;;27.00;;
63217;SDS011;49314;48.278;16.378;2023-04-03T14:57:28;29.00;;;28.00;;
63217;SDS011;49314;48.278;16.378;2023-04-03T14:59:54;27.77;;;26.75;;
63217;SDS011;49314;48.278;16.378;2023-04-03T15:02:27;27.85;;;26.92;;
63217;SDS011;49314;48.278;16.378;2023-04-03T15:04:54;11.77;;;11.25;;
63217;SDS011;49314;48.278;16.378;2023-04-03T15:07:19;23.90;;;22.95;;
63217;SDS011;49314;48.278;16.378;2023-04-03T15:09:45;27.15;;;26.05;;
63217;SDS011;49314;48.278;16.378;2023-04-03T15:12:10;27.75;;;26.65;;
63217;SDS011;49314;48.278;16.378;2023-04-03T15:14:35;32.33;;;30.83;;
63217;SDS011;49314;48.278;16.378;2023-04-03T15:17:01;29.85;;;28.27;;
63217;SDS011;49314;48.278;16.378;2023-04-03T15:19:27;17.42;;;16.52;;
63217;SDS011;49314;48.278;16.378;2023-04-03T15:21:52;34.25;;;31.88;;
63217;SDS011;49314;48.278;16.378;2023-04-03T15:24:17;29.77;;;28.47;;
63217;SDS011;49314;48.278;16.378;2023-04-03T15:26:42;28.42;;;27.25;;
63217;SDS011;49314;48.278;16.378;2023-04-03T15:29:07;29.50;;;28.10;;
63217;SDS011;49314;48.278;16.378;2023-04-03T15:31:33;20.05;;;18.45;;
63217;SDS011;49314;48.278;16.378;2023-04-03T15:33:58;30.63;;;29.17;;
63217;SDS011;49314;48.278;16.378;2023-04-03T15:36:24;26.45;;;25.30;;
63217;SDS011;49314;48.278;16.378;2023-04-03T15:38:49;24.88;;;23.50;;
63217;SDS011;49314;48.278;16.378;2023-04-03T15:41:14;29.98;;;28.48;;
63217;SDS011;49314;48.278;16.378;2023-04-03T15:43:40;9.25;;;8.75;;
63217;SDS011;49314;48.278;16.378;2023-04-03T15:46:05;28.52;;;27.42;;
63217;SDS011;49314;48.278;16.378;2023-04-03T15:48:30;26.92;;;25.83;;
63217;SDS011;49314;48.278;16.378;2023-04-03T15:50:56;24.20;;;23.33;;
63217;SDS011;49314;48.278;16.378;2023-04-03T15:53:21;26.38;;;25.27;;
63217;SDS011;49314;48.278;16.378;2023-04-03T15:55:46;24.20;;;23.25;;
63217;SDS011;49314;48.278;16.378;2023-04-03T15:58:11;27.40;;;26.40;;